sensor_id;sensor_type;location;lat;lon;timestamp;temperature;humidity
7232;DHT22;3657;49.630;11.018;2022-07-15T00:02:14;24.20;52.30
7232;DHT22;3657;49.630;11.018;2022-07-15T00:04:41;24.20;52.30
7232;DHT22;3657;49.630;11.018;2022-07-15T00:07:08;24.20;52.40
7232;DHT22;3657;49.630;11.018;2022-07-15T00:09:34;24.10;52.50
7232;DHT22;3657;49.630;11.018;2022-07-15T00:12:20;24.00;52.50
7232;DHT22;3657;49.630;11.018;2022-07-15T00:14:50;24.00;52.50
7232;DHT22;3657;49.630;11.018;2022-07-15T00:17:16;24.00;52.60
7232;DHT22;3657;49.630;11.018;2022-07-15T00:19:43;23.90;52.60
7232;DHT22;3657;49.630;11.018;2022-07-15T00:22:10;23.90;52.70
7232;DHT22;3657;49.630;11.018;2022-07-15T00:24:37;23.80;52.70
7232;DHT22;3657;49.630;11.018;2022-07-15T00:27:04;23.80;52.70
7232;DHT22;3657;49.630;11.018;2022-07-15T00:29:32;23.70;52.80
7232;DHT22;3657;49.630;11.018;2022-07-15T00:31:58;23.70;52.90
7232;DHT22;3657;49.630;11.018;2022-07-15T00:34:25;23.60;52.90
7232;DHT22;3657;49.630;11.018;2022-07-15T00:36:52;23.60;52.90
7232;DHT22;3657;49.630;11.018;2022-07-15T00:39:19;23.50;52.90
7232;DHT22;3657;49.630;11.018;2022-07-15T00:41:45;23.50;53.00
7232;DHT22;3657;49.630;11.018;2022-07-15T00:44:12;23.40;52.90
7232;DHT22;3657;49.630;11.018;2022-07-15T00:46:41;23.40;53.00
7232;DHT22;3657;49.630;11.018;2022-07-15T00:49:09;23.40;53.10
7232;DHT22;3657;49.630;11.018;2022-07-15T00:51:37;23.30;53.10
7232;DHT22;3657;49.630;11.018;2022-07-15T00:54:05;23.30;53.20
7232;DHT22;3657;49.630;11.018;2022-07-15T00:56:37;23.20;53.20
7232;DHT22;3657;49.630;11.018;2022-07-15T00:59:06;23.20;53.20
7232;DHT22;3657;49.630;11.018;2022-07-15T01:01:33;23.10;53.20
7232;DHT22;3657;49.630;11.018;2022-07-15T01:04:04;23.10;53.30
7232;DHT22;3657;49.630;11.018;2022-07-15T01:06:32;23.10;53.30
7232;DHT22;3657;49.630;11.018;2022-07-15T01:08:59;23.00;53.30
7232;DHT22;3657;49.630;11.018;2022-07-15T01:11:26;23.00;53.30
7232;DHT22;3657;49.630;11.018;2022-07-15T01:13:56;22.90;53.30
7232;DHT22;3657;49.630;11.018;2022-07-15T01:16:22;22.90;53.40
7232;DHT22;3657;49.630;11.018;2022-07-15T01:18:49;22.80;53.40
7232;DHT22;3657;49.630;11.018;2022-07-15T01:21:17;22.80;53.40
7232;DHT22;3657;49.630;11.018;2022-07-15T01:23:44;22.70;53.40
7232;DHT22;3657;49.630;11.018;2022-07-15T01:26:11;22.70;53.40
7232;DHT22;3657;49.630;11.018;2022-07-15T01:28:38;22.60;53.50
7232;DHT22;3657;49.630;11.018;2022-07-15T01:31:05;22.60;53.50
7232;DHT22;3657;49.630;11.018;2022-07-15T01:33:32;22.60;53.60
7232;DHT22;3657;49.630;11.018;2022-07-15T01:35:59;22.50;53.60
7232;DHT22;3657;49.630;11.018;2022-07-15T01:38:28;22.40;53.50
7232;DHT22;3657;49.630;11.018;2022-07-15T01:40:55;22.40;53.50
7232;DHT22;3657;49.630;11.018;2022-07-15T01:43:22;22.40;53.50
7232;DHT22;3657;49.630;11.018;2022-07-15T01:45:49;22.30;53.50
7232;DHT22;3657;49.630;11.018;2022-07-15T01:48:16;22.30;54.00
7232;DHT22;3657;49.630;11.018;2022-07-15T01:51:01;22.30;53.60
7232;DHT22;3657;49.630;11.018;2022-07-15T01:53:29;22.20;53.60
7232;DHT22;3657;49.630;11.018;2022-07-15T01:55:56;22.20;53.60
7232;DHT22;3657;49.630;11.018;2022-07-15T01:58:22;22.10;53.60
7232;DHT22;3657;49.630;11.018;2022-07-15T02:00:49;22.10;53.70
7232;DHT22;3657;49.630;11.018;2022-07-15T02:03:16;22.00;53.70
7232;DHT22;3657;49.630;11.018;2022-07-15T02:05:42;22.00;53.60
7232;DHT22;3657;49.630;11.018;2022-07-15T02:08:09;22.00;53.80
7232;DHT22;3657;49.630;11.018;2022-07-15T02:10:37;21.90;53.70
7232;DHT22;3657;49.630;11.018;2022-07-15T02:13:07;21.90;53.70
7232;DHT22;3657;49.630;11.018;2022-07-15T02:15:35;21.80;53.70
7232;DHT22;3657;49.630;11.018;2022-07-15T02:18:02;21.80;53.80
7232;DHT22;3657;49.630;11.018;2022-07-15T02:20:31;21.70;53.80
7232;DHT22;3657;49.630;11.018;2022-07-15T02:22:58;21.70;53.80
7232;DHT22;3657;49.630;11.018;2022-07-15T02:25:28;21.70;53.80
7232;DHT22;3657;49.630;11.018;2022-07-15T02:27:58;21.60;53.90
7232;DHT22;3657;49.630;11.018;2022-07-15T02:30:26;21.60;53.80
7232;DHT22;3657;49.630;11.018;2022-07-15T02:32:53;21.50;53.80
7232;DHT22;3657;49.630;11.018;2022-07-15T02:35:21;21.50;53.90
7232;DHT22;3657;49.630;11.018;2022-07-15T02:37:48;21.50;53.80
7232;DHT22;3657;49.630;11.018;2022-07-15T02:40:15;21.40;53.90
7232;DHT22;3657;49.630;11.018;2022-07-15T02:42:48;21.40;53.90
7232;DHT22;3657;49.630;11.018;2022-07-15T02:45:18;21.40;54.00
7232;DHT22;3657;49.630;11.018;2022-07-15T02:47:45;21.30;54.00
7232;DHT22;3657;49.630;11.018;2022-07-15T02:50:12;21.20;54.00
7232;DHT22;3657;49.630;11.018;2022-07-15T02:52:38;21.20;54.00
7232;DHT22;3657;49.630;11.018;2022-07-15T02:55:07;21.20;54.10
7232;DHT22;3657;49.630;11.018;2022-07-15T02:57:33;21.10;54.10
7232;DHT22;3657;49.630;11.018;2022-07-15T03:00:00;21.10;54.10
7232;DHT22;3657;49.630;11.018;2022-07-15T03:02:29;21.00;54.10
7232;DHT22;3657;49.630;11.018;2022-07-15T03:04:55;21.00;54.60
7232;DHT22;3657;49.630;11.018;2022-07-15T03:07:23;21.00;54.40
7232;DHT22;3657;49.630;11.018;2022-07-15T03:09:50;20.90;54.20
7232;DHT22;3657;49.630;11.018;2022-07-15T03:12:16;20.90;54.30
7232;DHT22;3657;49.630;11.018;2022-07-15T03:14:43;20.90;54.40
7232;DHT22;3657;49.630;11.018;2022-07-15T03:17:10;20.80;54.40
7232;DHT22;3657;49.630;11.018;2022-07-15T03:19:41;20.80;54.90
7232;DHT22;3657;49.630;11.018;2022-07-15T03:22:07;20.70;54.40
7232;DHT22;3657;49.630;11.018;2022-07-15T03:24:34;20.70;54.50
7232;DHT22;3657;49.630;11.018;2022-07-15T03:27:01;20.60;54.40
7232;DHT22;3657;49.630;11.018;2022-07-15T03:29:27;20.60;54.50
7232;DHT22;3657;49.630;11.018;2022-07-15T03:31:55;20.60;54.60
7232;DHT22;3657;49.630;11.018;2022-07-15T03:34:22;20.50;54.50
7232;DHT22;3657;49.630;11.018;2022-07-15T03:36:52;20.50;54.50
7232;DHT22;3657;49.630;11.018;2022-07-15T03:39:20;20.50;54.50
7232;DHT22;3657;49.630;11.018;2022-07-15T03:41:47;20.50;54.60
7232;DHT22;3657;49.630;11.018;2022-07-15T03:44:14;20.40;54.50
7232;DHT22;3657;49.630;11.018;2022-07-15T03:46:42;20.40;54.60
7232;DHT22;3657;49.630;11.018;2022-07-15T03:49:11;20.40;54.60
7232;DHT22;3657;49.630;11.018;2022-07-15T03:51:37;20.30;54.50
7232;DHT22;3657;49.630;11.018;2022-07-15T03:54:05;20.30;54.60
7232;DHT22;3657;49.630;11.018;2022-07-15T03:56:33;20.20;54.50
7232;DHT22;3657;49.630;11.018;2022-07-15T03:59:00;20.20;54.50
7232;DHT22;3657;49.630;11.018;2022-07-15T04:01:30;20.20;54.50
7232;DHT22;3657;49.630;11.018;2022-07-15T04:03:56;20.20;54.60
7232;DHT22;3657;49.630;11.018;2022-07-15T04:06:23;20.20;54.60
7232;DHT22;3657;49.630;11.018;2022-07-15T04:08:51;20.10;54.60
7232;DHT22;3657;49.630;11.018;2022-07-15T04:11:19;20.10;55.00
7232;DHT22;3657;49.630;11.018;2022-07-15T04:13:46;20.10;54.60
7232;DHT22;3657;49.630;11.018;2022-07-15T04:16:13;20.10;54.70
7232;DHT22;3657;49.630;11.018;2022-07-15T04:18:40;20.00;54.70
7232;DHT22;3657;49.630;11.018;2022-07-15T04:21:07;20.00;54.70
7232;DHT22;3657;49.630;11.018;2022-07-15T04:23:34;20.00;54.70
7232;DHT22;3657;49.630;11.018;2022-07-15T04:26:01;19.90;54.70
7232;DHT22;3657;49.630;11.018;2022-07-15T04:28:29;19.90;54.80
7232;DHT22;3657;49.630;11.018;2022-07-15T04:30:55;19.90;54.80
7232;DHT22;3657;49.630;11.018;2022-07-15T04:33:22;19.90;54.90
7232;DHT22;3657;49.630;11.018;2022-07-15T04:35:49;19.80;54.90
7232;DHT22;3657;49.630;11.018;2022-07-15T04:38:16;19.80;54.90
7232;DHT22;3657;49.630;11.018;2022-07-15T04:40:43;19.80;54.90
7232;DHT22;3657;49.630;11.018;2022-07-15T04:43:10;19.80;55.00
7232;DHT22;3657;49.630;11.018;2022-07-15T04:45:40;19.70;54.90
7232;DHT22;3657;49.630;11.018;2022-07-15T04:48:07;19.70;55.00
7232;DHT22;3657;49.630;11.018;2022-07-15T04:50:47;19.80;55.10
7232;DHT22;3657;49.630;11.018;2022-07-15T04:53:17;19.70;55.00
7232;DHT22;3657;49.630;11.018;2022-07-15T04:55:44;19.70;55.00
7232;DHT22;3657;49.630;11.018;2022-07-15T04:58:11;19.70;55.50
7232;DHT22;3657;49.630;11.018;2022-07-15T05:00:41;19.70;55.10
7232;DHT22;3657;49.630;11.018;2022-07-15T05:03:07;19.60;55.00
7232;DHT22;3657;49.630;11.018;2022-07-15T05:05:34;19.70;55.20
7232;DHT22;3657;49.630;11.018;2022-07-15T05:08:01;19.70;55.20
7232;DHT22;3657;49.630;11.018;2022-07-15T05:10:29;19.70;55.10
7232;DHT22;3657;49.630;11.018;2022-07-15T05:12:55;19.70;55.30
7232;DHT22;3657;49.630;11.018;2022-07-15T05:15:22;19.70;55.10
7232;DHT22;3657;49.630;11.018;2022-07-15T05:17:51;19.60;55.30
7232;DHT22;3657;49.630;11.018;2022-07-15T05:20:18;19.70;55.30
7232;DHT22;3657;49.630;11.018;2022-07-15T05:22:44;19.60;55.30
7232;DHT22;3657;49.630;11.018;2022-07-15T05:25:11;19.70;55.30
7232;DHT22;3657;49.630;11.018;2022-07-15T05:27:38;19.70;55.30
7232;DHT22;3657;49.630;11.018;2022-07-15T05:30:06;19.80;55.30
7232;DHT22;3657;49.630;11.018;2022-07-15T05:32:33;19.90;55.30
7232;DHT22;3657;49.630;11.018;2022-07-15T05:35:01;19.90;55.40
7232;DHT22;3657;49.630;11.018;2022-07-15T05:37:28;20.00;55.80
7232;DHT22;3657;49.630;11.018;2022-07-15T05:39:55;20.10;55.20
7232;DHT22;3657;49.630;11.018;2022-07-15T05:42:23;20.00;55.20
7232;DHT22;3657;49.630;11.018;2022-07-15T05:44:50;20.00;55.30
7232;DHT22;3657;49.630;11.018;2022-07-15T05:47:17;20.00;55.30
7232;DHT22;3657;49.630;11.018;2022-07-15T05:49:43;20.00;55.30
7232;DHT22;3657;49.630;11.018;2022-07-15T05:52:11;20.00;55.40
7232;DHT22;3657;49.630;11.018;2022-07-15T05:54:38;20.00;55.40
7232;DHT22;3657;49.630;11.018;2022-07-15T05:57:05;20.00;55.60
7232;DHT22;3657;49.630;11.018;2022-07-15T05:59:31;20.00;55.60
7232;DHT22;3657;49.630;11.018;2022-07-15T06:01:58;20.00;55.70
7232;DHT22;3657;49.630;11.018;2022-07-15T06:04:25;20.00;55.80
7232;DHT22;3657;49.630;11.018;2022-07-15T06:06:53;20.00;55.90
7232;DHT22;3657;49.630;11.018;2022-07-15T06:09:21;19.90;56.40
7232;DHT22;3657;49.630;11.018;2022-07-15T06:11:48;19.90;56.10
7232;DHT22;3657;49.630;11.018;2022-07-15T06:14:15;19.90;56.20
7232;DHT22;3657;49.630;11.018;2022-07-15T06:16:42;19.90;56.30
7232;DHT22;3657;49.630;11.018;2022-07-15T06:19:09;20.00;56.40
7232;DHT22;3657;49.630;11.018;2022-07-15T06:21:36;20.00;56.40
7232;DHT22;3657;49.630;11.018;2022-07-15T06:24:03;20.00;56.60
7232;DHT22;3657;49.630;11.018;2022-07-15T06:26:31;20.00;56.60
7232;DHT22;3657;49.630;11.018;2022-07-15T06:28:58;20.10;56.80
7232;DHT22;3657;49.630;11.018;2022-07-15T06:31:24;20.10;56.50
7232;DHT22;3657;49.630;11.018;2022-07-15T06:33:51;19.90;57.30
7232;DHT22;3657;49.630;11.018;2022-07-15T06:36:18;19.90;58.80
7232;DHT22;3657;49.630;11.018;2022-07-15T06:38:44;19.90;57.10
7232;DHT22;3657;49.630;11.018;2022-07-15T06:41:15;20.00;56.80
7232;DHT22;3657;49.630;11.018;2022-07-15T06:43:43;20.10;57.70
7232;DHT22;3657;49.630;11.018;2022-07-15T06:46:10;20.30;57.80
7232;DHT22;3657;49.630;11.018;2022-07-15T06:48:36;20.40;57.00
7232;DHT22;3657;49.630;11.018;2022-07-15T06:51:04;20.30;57.10
7232;DHT22;3657;49.630;11.018;2022-07-15T06:53:31;20.20;58.90
7232;DHT22;3657;49.630;11.018;2022-07-15T06:55:58;20.20;57.30
7232;DHT22;3657;49.630;11.018;2022-07-15T06:58:25;20.30;57.20
7232;DHT22;3657;49.630;11.018;2022-07-15T07:00:53;20.40;57.10
7232;DHT22;3657;49.630;11.018;2022-07-15T07:03:19;20.50;57.10
7232;DHT22;3657;49.630;11.018;2022-07-15T07:05:46;20.50;56.80
7232;DHT22;3657;49.630;11.018;2022-07-15T07:08:13;20.60;57.80
7232;DHT22;3657;49.630;11.018;2022-07-15T07:10:39;20.60;57.00
7232;DHT22;3657;49.630;11.018;2022-07-15T07:13:06;20.60;57.50
7232;DHT22;3657;49.630;11.018;2022-07-15T07:15:33;21.00;56.80
7232;DHT22;3657;49.630;11.018;2022-07-15T07:18:01;21.30;56.80
7232;DHT22;3657;49.630;11.018;2022-07-15T07:20:28;21.50;56.00
7232;DHT22;3657;49.630;11.018;2022-07-15T07:22:55;21.70;56.30
7232;DHT22;3657;49.630;11.018;2022-07-15T07:25:22;21.80;57.00
7232;DHT22;3657;49.630;11.018;2022-07-15T07:27:49;21.90;57.20
7232;DHT22;3657;49.630;11.018;2022-07-15T07:30:16;22.30;55.80
7232;DHT22;3657;49.630;11.018;2022-07-15T07:32:42;22.70;55.50
7232;DHT22;3657;49.630;11.018;2022-07-15T07:35:10;23.10;55.50
7232;DHT22;3657;49.630;11.018;2022-07-15T07:37:38;23.20;55.60
7232;DHT22;3657;49.630;11.018;2022-07-15T07:40:07;23.20;55.70
7232;DHT22;3657;49.630;11.018;2022-07-15T07:42:34;23.30;56.60
7232;DHT22;3657;49.630;11.018;2022-07-15T07:45:00;23.40;55.30
7232;DHT22;3657;49.630;11.018;2022-07-15T07:47:27;23.40;55.30
7232;DHT22;3657;49.630;11.018;2022-07-15T07:49:54;23.50;55.80
7232;DHT22;3657;49.630;11.018;2022-07-15T07:52:22;23.60;55.80
7232;DHT22;3657;49.630;11.018;2022-07-15T07:54:49;23.70;55.90
7232;DHT22;3657;49.630;11.018;2022-07-15T07:57:31;23.90;55.60
7232;DHT22;3657;49.630;11.018;2022-07-15T07:59:58;24.00;55.60
7232;DHT22;3657;49.630;11.018;2022-07-15T08:02:24;24.20;55.40
7232;DHT22;3657;49.630;11.018;2022-07-15T08:04:51;24.40;55.30
7232;DHT22;3657;49.630;11.018;2022-07-15T08:07:18;24.60;55.10
7232;DHT22;3657;49.630;11.018;2022-07-15T08:09:46;24.90;54.90
7232;DHT22;3657;49.630;11.018;2022-07-15T08:12:12;25.10;54.70
7232;DHT22;3657;49.630;11.018;2022-07-15T08:14:39;25.30;54.40
7232;DHT22;3657;49.630;11.018;2022-07-15T08:17:06;25.40;54.50
7232;DHT22;3657;49.630;11.018;2022-07-15T08:19:32;25.50;54.30
7232;DHT22;3657;49.630;11.018;2022-07-15T08:21:59;25.60;54.70
7232;DHT22;3657;49.630;11.018;2022-07-15T08:24:26;25.90;54.70
7232;DHT22;3657;49.630;11.018;2022-07-15T08:26:54;26.10;54.50
7232;DHT22;3657;49.630;11.018;2022-07-15T08:29:21;26.30;53.90
7232;DHT22;3657;49.630;11.018;2022-07-15T08:31:48;26.40;54.10
7232;DHT22;3657;49.630;11.018;2022-07-15T08:34:14;26.50;53.60
7232;DHT22;3657;49.630;11.018;2022-07-15T08:36:41;26.30;52.80
7232;DHT22;3657;49.630;11.018;2022-07-15T08:39:08;26.50;52.70
7232;DHT22;3657;49.630;11.018;2022-07-15T08:41:38;26.70;53.30
7232;DHT22;3657;49.630;11.018;2022-07-15T08:44:06;26.80;51.80
7232;DHT22;3657;49.630;11.018;2022-07-15T08:46:33;26.90;52.70
7232;DHT22;3657;49.630;11.018;2022-07-15T08:49:04;26.90;53.20
7232;DHT22;3657;49.630;11.018;2022-07-15T08:51:35;27.00;52.90
7232;DHT22;3657;49.630;11.018;2022-07-15T08:54:02;27.00;52.50
7232;DHT22;3657;49.630;11.018;2022-07-15T08:56:29;27.20;52.30
7232;DHT22;3657;49.630;11.018;2022-07-15T08:58:57;27.20;52.90
7232;DHT22;3657;49.630;11.018;2022-07-15T09:01:25;27.00;51.30
7232;DHT22;3657;49.630;11.018;2022-07-15T09:03:52;27.50;51.60
7232;DHT22;3657;49.630;11.018;2022-07-15T09:06:33;27.80;49.30
7232;DHT22;3657;49.630;11.018;2022-07-15T09:09:25;27.40;51.30
7232;DHT22;3657;49.630;11.018;2022-07-15T09:12:06;27.10;52.00
7232;DHT22;3657;49.630;11.018;2022-07-15T09:14:35;27.20;51.80
7232;DHT22;3657;49.630;11.018;2022-07-15T09:17:23;27.10;52.80
7232;DHT22;3657;49.630;11.018;2022-07-15T09:20:05;27.00;53.20
7232;DHT22;3657;49.630;11.018;2022-07-15T09:22:47;27.30;52.90
7232;DHT22;3657;49.630;11.018;2022-07-15T09:25:15;27.60;51.20
7232;DHT22;3657;49.630;11.018;2022-07-15T09:27:43;27.90;51.70
7232;DHT22;3657;49.630;11.018;2022-07-15T09:30:15;28.00;48.90
7232;DHT22;3657;49.630;11.018;2022-07-15T09:33:04;28.20;51.20
7232;DHT22;3657;49.630;11.018;2022-07-15T09:35:48;28.00;49.90
7232;DHT22;3657;49.630;11.018;2022-07-15T09:38:33;28.00;52.00
7232;DHT22;3657;49.630;11.018;2022-07-15T09:41:00;28.40;49.90
7232;DHT22;3657;49.630;11.018;2022-07-15T09:43:27;28.60;50.90
7232;DHT22;3657;49.630;11.018;2022-07-15T09:45:57;28.40;51.40
7232;DHT22;3657;49.630;11.018;2022-07-15T09:48:27;28.20;50.60
7232;DHT22;3657;49.630;11.018;2022-07-15T09:50:59;27.90;50.30
7232;DHT22;3657;49.630;11.018;2022-07-15T09:53:26;27.70;52.60
7232;DHT22;3657;49.630;11.018;2022-07-15T09:55:54;27.50;50.70
7232;DHT22;3657;49.630;11.018;2022-07-15T09:58:20;27.50;52.80
7232;DHT22;3657;49.630;11.018;2022-07-15T10:00:47;27.60;49.80
7232;DHT22;3657;49.630;11.018;2022-07-15T10:03:16;28.10;52.20
7232;DHT22;3657;49.630;11.018;2022-07-15T10:05:44;28.70;51.50
7232;DHT22;3657;49.630;11.018;2022-07-15T10:08:14;29.20;49.80
7232;DHT22;3657;49.630;11.018;2022-07-15T10:10:42;29.60;50.20
7232;DHT22;3657;49.630;11.018;2022-07-15T10:13:17;29.80;49.60
7232;DHT22;3657;49.630;11.018;2022-07-15T10:15:53;29.40;47.10
7232;DHT22;3657;49.630;11.018;2022-07-15T10:18:32;29.20;49.60
7232;DHT22;3657;49.630;11.018;2022-07-15T10:21:15;29.20;47.90
7232;DHT22;3657;49.630;11.018;2022-07-15T10:26:59;29.30;50.30
7232;DHT22;3657;49.630;11.018;2022-07-15T10:29:29;29.20;50.50
7232;DHT22;3657;49.630;11.018;2022-07-15T10:31:58;29.20;50.20
7232;DHT22;3657;49.630;11.018;2022-07-15T10:34:32;29.40;50.30
7232;DHT22;3657;49.630;11.018;2022-07-15T10:37:03;29.60;50.00
7232;DHT22;3657;49.630;11.018;2022-07-15T10:40:02;30.10;49.60
7232;DHT22;3657;49.630;11.018;2022-07-15T10:42:59;30.30;49.20
7232;DHT22;3657;49.630;11.018;2022-07-15T10:45:27;30.30;48.90
7232;DHT22;3657;49.630;11.018;2022-07-15T10:48:25;29.80;48.00
7232;DHT22;3657;49.630;11.018;2022-07-15T10:50:52;29.60;48.60
7232;DHT22;3657;49.630;11.018;2022-07-15T10:53:23;29.60;49.40
7232;DHT22;3657;49.630;11.018;2022-07-15T10:55:51;29.40;49.00
7232;DHT22;3657;49.630;11.018;2022-07-15T10:58:18;29.30;49.90
7232;DHT22;3657;49.630;11.018;2022-07-15T11:00:46;29.20;50.30
7232;DHT22;3657;49.630;11.018;2022-07-15T11:03:15;29.40;49.90
7232;DHT22;3657;49.630;11.018;2022-07-15T11:06:02;29.60;49.00
7232;DHT22;3657;49.630;11.018;2022-07-15T11:08:53;30.00;50.00
7232;DHT22;3657;49.630;11.018;2022-07-15T11:11:45;30.20;48.60
7232;DHT22;3657;49.630;11.018;2022-07-15T11:14:45;30.20;49.50
7232;DHT22;3657;49.630;11.018;2022-07-15T11:17:13;30.30;49.50
7232;DHT22;3657;49.630;11.018;2022-07-15T11:19:42;30.40;49.20
7232;DHT22;3657;49.630;11.018;2022-07-15T11:22:11;30.40;48.60
7232;DHT22;3657;49.630;11.018;2022-07-15T11:24:40;30.50;49.00
7232;DHT22;3657;49.630;11.018;2022-07-15T11:27:06;30.40;47.60
7232;DHT22;3657;49.630;11.018;2022-07-15T11:29:44;30.30;49.00
7232;DHT22;3657;49.630;11.018;2022-07-15T11:32:11;30.30;48.90
7232;DHT22;3657;49.630;11.018;2022-07-15T11:34:39;30.50;49.10
7232;DHT22;3657;49.630;11.018;2022-07-15T11:37:06;30.70;49.00
7232;DHT22;3657;49.630;11.018;2022-07-15T11:39:33;30.70;48.70
7232;DHT22;3657;49.630;11.018;2022-07-15T11:42:01;30.60;49.20
7232;DHT22;3657;49.630;11.018;2022-07-15T11:44:46;30.40;49.00
7232;DHT22;3657;49.630;11.018;2022-07-15T11:47:13;30.20;47.90
7232;DHT22;3657;49.630;11.018;2022-07-15T11:49:40;30.20;49.30
7232;DHT22;3657;49.630;11.018;2022-07-15T11:52:09;30.20;48.90
7232;DHT22;3657;49.630;11.018;2022-07-15T11:54:37;30.20;49.20
7232;DHT22;3657;49.630;11.018;2022-07-15T11:57:07;30.20;48.90
7232;DHT22;3657;49.630;11.018;2022-07-15T11:59:34;30.10;48.50
7232;DHT22;3657;49.630;11.018;2022-07-15T12:02:02;30.10;49.10
7232;DHT22;3657;49.630;11.018;2022-07-15T12:04:29;30.20;49.10
7232;DHT22;3657;49.630;11.018;2022-07-15T12:06:57;30.30;48.90
7232;DHT22;3657;49.630;11.018;2022-07-15T12:09:25;30.40;48.90
7232;DHT22;3657;49.630;11.018;2022-07-15T12:11:52;30.50;47.90
7232;DHT22;3657;49.630;11.018;2022-07-15T12:14:21;30.50;48.80
7232;DHT22;3657;49.630;11.018;2022-07-15T12:16:50;30.50;48.70
7232;DHT22;3657;49.630;11.018;2022-07-15T12:19:20;30.50;48.70
7232;DHT22;3657;49.630;11.018;2022-07-15T12:21:48;30.60;47.70
7232;DHT22;3657;49.630;11.018;2022-07-15T12:24:16;30.70;48.30
7232;DHT22;3657;49.630;11.018;2022-07-15T12:26:56;30.60;47.40
7232;DHT22;3657;49.630;11.018;2022-07-15T12:29:28;30.30;46.90
7232;DHT22;3657;49.630;11.018;2022-07-15T12:31:57;30.30;48.50
7232;DHT22;3657;49.630;11.018;2022-07-15T12:34:49;30.20;47.80
7232;DHT22;3657;49.630;11.018;2022-07-15T12:37:17;30.20;48.50
7232;DHT22;3657;49.630;11.018;2022-07-15T12:39:55;30.20;48.70
7232;DHT22;3657;49.630;11.018;2022-07-15T12:42:22;30.30;48.60
7232;DHT22;3657;49.630;11.018;2022-07-15T12:45:06;30.40;48.70
7232;DHT22;3657;49.630;11.018;2022-07-15T12:47:33;30.40;47.60
7232;DHT22;3657;49.630;11.018;2022-07-15T12:50:00;30.50;48.50
7232;DHT22;3657;49.630;11.018;2022-07-15T12:52:32;30.50;46.70
7232;DHT22;3657;49.630;11.018;2022-07-15T12:55:12;30.50;47.30
7232;DHT22;3657;49.630;11.018;2022-07-15T12:57:39;30.70;48.30
7232;DHT22;3657;49.630;11.018;2022-07-15T13:00:11;30.80;48.00
7232;DHT22;3657;49.630;11.018;2022-07-15T13:02:58;30.90;47.00
7232;DHT22;3657;49.630;11.018;2022-07-15T13:05:26;30.80;46.60
7232;DHT22;3657;49.630;11.018;2022-07-15T13:07:53;30.30;44.70
7232;DHT22;3657;49.630;11.018;2022-07-15T13:10:19;29.70;43.90
7232;DHT22;3657;49.630;11.018;2022-07-15T13:12:46;29.60;48.30
7232;DHT22;3657;49.630;11.018;2022-07-15T13:15:14;29.90;48.40
7232;DHT22;3657;49.630;11.018;2022-07-15T13:17:41;30.20;48.30
7232;DHT22;3657;49.630;11.018;2022-07-15T13:20:09;30.50;47.80
7232;DHT22;3657;49.630;11.018;2022-07-15T13:22:37;30.60;47.90
7232;DHT22;3657;49.630;11.018;2022-07-15T13:25:05;30.70;45.50
7232;DHT22;3657;49.630;11.018;2022-07-15T13:27:32;30.60;47.10
7232;DHT22;3657;49.630;11.018;2022-07-15T13:29:59;30.60;46.90
7232;DHT22;3657;49.630;11.018;2022-07-15T13:32:27;30.70;47.20
7232;DHT22;3657;49.630;11.018;2022-07-15T13:34:53;30.60;46.60
7232;DHT22;3657;49.630;11.018;2022-07-15T13:37:20;30.70;47.30
7232;DHT22;3657;49.630;11.018;2022-07-15T13:39:47;30.70;46.40
7232;DHT22;3657;49.630;11.018;2022-07-15T13:42:14;30.80;46.00
7232;DHT22;3657;49.630;11.018;2022-07-15T13:44:40;30.90;46.40
7232;DHT22;3657;49.630;11.018;2022-07-15T13:47:07;30.90;45.80
7232;DHT22;3657;49.630;11.018;2022-07-15T13:49:35;30.90;46.40
7232;DHT22;3657;49.630;11.018;2022-07-15T13:52:20;31.00;46.90
7232;DHT22;3657;49.630;11.018;2022-07-15T13:54:47;31.00;43.40
7232;DHT22;3657;49.630;11.018;2022-07-15T13:57:14;30.80;46.70
7232;DHT22;3657;49.630;11.018;2022-07-15T13:59:40;30.90;47.10
7232;DHT22;3657;49.630;11.018;2022-07-15T14:02:07;31.00;47.30
7232;DHT22;3657;49.630;11.018;2022-07-15T14:04:35;31.10;46.70
7232;DHT22;3657;49.630;11.018;2022-07-15T14:07:02;31.20;44.90
7232;DHT22;3657;49.630;11.018;2022-07-15T14:09:29;31.10;44.80
7232;DHT22;3657;49.630;11.018;2022-07-15T14:11:56;31.00;45.30
7232;DHT22;3657;49.630;11.018;2022-07-15T14:14:22;31.00;46.70
7232;DHT22;3657;49.630;11.018;2022-07-15T14:16:49;31.10;46.30
7232;DHT22;3657;49.630;11.018;2022-07-15T14:19:16;31.10;45.50
7232;DHT22;3657;49.630;11.018;2022-07-15T14:21:44;31.00;46.00
7232;DHT22;3657;49.630;11.018;2022-07-15T14:24:11;31.10;45.60
7232;DHT22;3657;49.630;11.018;2022-07-15T14:26:37;31.10;45.20
7232;DHT22;3657;49.630;11.018;2022-07-15T14:29:04;31.10;46.20
7232;DHT22;3657;49.630;11.018;2022-07-15T14:31:31;31.20;45.80
7232;DHT22;3657;49.630;11.018;2022-07-15T14:33:58;31.30;46.20
7232;DHT22;3657;49.630;11.018;2022-07-15T14:36:24;31.50;46.40
7232;DHT22;3657;49.630;11.018;2022-07-15T14:38:53;31.60;46.20
7232;DHT22;3657;49.630;11.018;2022-07-15T14:41:19;31.70;46.00
7232;DHT22;3657;49.630;11.018;2022-07-15T14:43:46;31.80;44.80
7232;DHT22;3657;49.630;11.018;2022-07-15T14:46:13;31.80;45.50
7232;DHT22;3657;49.630;11.018;2022-07-15T14:48:42;31.70;45.50
7232;DHT22;3657;49.630;11.018;2022-07-15T14:51:09;31.80;45.30
7232;DHT22;3657;49.630;11.018;2022-07-15T14:53:36;31.70;45.00
7232;DHT22;3657;49.630;11.018;2022-07-15T14:56:04;31.70;45.30
7232;DHT22;3657;49.630;11.018;2022-07-15T14:58:31;31.70;45.70
7232;DHT22;3657;49.630;11.018;2022-07-15T15:00:58;31.40;45.50
7232;DHT22;3657;49.630;11.018;2022-07-15T15:03:25;31.40;45.80
7232;DHT22;3657;49.630;11.018;2022-07-15T15:05:51;31.40;44.90
7232;DHT22;3657;49.630;11.018;2022-07-15T15:08:18;31.40;44.90
7232;DHT22;3657;49.630;11.018;2022-07-15T15:10:45;31.30;44.90
7232;DHT22;3657;49.630;11.018;2022-07-15T15:13:13;31.10;44.70
7232;DHT22;3657;49.630;11.018;2022-07-15T15:15:39;30.90;45.60
7232;DHT22;3657;49.630;11.018;2022-07-15T15:18:06;30.90;44.70
7232;DHT22;3657;49.630;11.018;2022-07-15T15:20:33;30.90;44.00
7232;DHT22;3657;49.630;11.018;2022-07-15T15:23:00;30.90;45.20
7232;DHT22;3657;49.630;11.018;2022-07-15T15:25:26;30.90;44.80
7232;DHT22;3657;49.630;11.018;2022-07-15T15:28:12;30.80;45.40
7232;DHT22;3657;49.630;11.018;2022-07-15T15:30:39;30.80;44.00
7232;DHT22;3657;49.630;11.018;2022-07-15T15:33:06;30.80;45.50
7232;DHT22;3657;49.630;11.018;2022-07-15T15:35:32;30.50;44.90
7232;DHT22;3657;49.630;11.018;2022-07-15T15:37:59;30.50;45.30
7232;DHT22;3657;49.630;11.018;2022-07-15T15:40:26;30.70;44.70
7232;DHT22;3657;49.630;11.018;2022-07-15T15:42:52;30.50;45.20
7232;DHT22;3657;49.630;11.018;2022-07-15T15:45:20;30.60;44.60
7232;DHT22;3657;49.630;11.018;2022-07-15T15:47:47;30.40;44.60
7232;DHT22;3657;49.630;11.018;2022-07-15T15:50:14;30.40;44.50
7232;DHT22;3657;49.630;11.018;2022-07-15T15:52:41;30.50;45.40
7232;DHT22;3657;49.630;11.018;2022-07-15T15:55:08;30.60;45.30
7232;DHT22;3657;49.630;11.018;2022-07-15T15:57:34;30.60;45.00
7232;DHT22;3657;49.630;11.018;2022-07-15T16:00:03;30.50;45.00